Time;durP1;ratioP1;P1;durP2;ratioP2;P2;SDS_P1;SDS_P2;PMS_P1;PMS_P2;Temp;Humidity;BMP_temperature;BMP_pressure;BME280_temperature;BME280_humidity;BME280_pressure;Samples;Min_cycle;Max_cycle;Signal;HPM_P1;HPM_P2
2022/05/29 00:04:45;;;;;;;4.90;2.50;;;;;;;12.35;100.00;99679.02;712208;1180;115883;-78
2022/05/29 00:19:48;;;;;;;5.90;3.00;;;;;;;12.36;100.00;99672.77;712233;1178;115613;-78
2022/05/29 00:34:51;;;;;;;3.00;2.30;;;;;;;12.30;100.00;99671.63;712065;1180;115363;-78
2022/05/29 00:49:53;;;;;;;7.63;2.88;;;;;;;12.15;100.00;99672.24;713347;1180;115376;-78
2022/05/29 01:04:57;;;;;;;4.90;2.57;;;;;;;12.18;100.00;99665.00;712325;1178;116459;-78
2022/05/29 01:20:16;;;;;;;5.95;2.55;;;;;;;12.16;100.00;99659.91;712258;1180;115417;-78
2022/05/29 01:35:26;;;;;;;7.60;3.37;;;;;;;12.07;100.00;99666.94;712345;1177;115355;-79
2022/05/29 01:50:43;;;;;;;7.20;3.37;;;;;;;12.11;100.00;99660.38;712327;1179;115496;-78
2022/05/29 02:05:56;;;;;;;9.30;4.03;;;;;;;12.09;100.00;99667.61;712095;1180;115267;-79
2022/05/29 02:21:04;;;;;;;7.37;3.57;;;;;;;12.14;100.00;99675.00;712076;1178;115398;-78
2022/05/29 02:36:29;;;;;;;;;;;;;;;12.13;100.00;99674.19;712300;1178;115209;-78
2022/05/29 02:51:55;;;;;;;9.93;3.73;;;;;;;12.13;100.00;99679.45;712320;1177;101078;-78
2022/05/29 03:07:09;;;;;;;5.65;3.60;;;;;;;12.15;100.00;99687.17;712367;1179;116756;-77
2022/05/29 03:22:23;;;;;;;7.13;3.73;;;;;;;12.23;100.00;99707.42;712213;1178;115312;-79
2022/05/29 03:37:25;;;;;;;7.00;4.30;;;;;;;12.30;100.00;99713.70;712091;1179;115163;-78
2022/05/29 03:52:27;;;;;;;10.40;4.20;;;;;;;12.49;100.00;99708.13;712204;1179;115477;-78
2022/05/29 04:22:50;;;;;;;5.70;4.30;;;;;;;12.48;100.00;99727.55;712386;1179;115664;-78
2022/05/29 04:37:53;;;;;;;11.50;5.40;;;;;;;12.60;100.00;99741.22;712308;1180;115693;-77
2022/05/29 04:52:55;;;;;;;10.03;5.20;;;;;;;12.63;100.00;99746.16;712419;1180;115604;-77
2022/05/29 05:07:57;;;;;;;9.00;5.10;;;;;;;12.67;100.00;99753.71;719420;1180;115486;-78
2022/05/29 05:23:01;;;;;;;10.05;5.55;;;;;;;12.66;100.00;99766.05;712350;1179;115823;-79
2022/05/29 05:38:06;;;;;;;8.90;5.70;;;;;;;12.72;100.00;99775.95;712234;1179;115429;-79
2022/05/29 05:53:08;;;;;;;7.45;5.50;;;;;;;12.73;100.00;99785.47;712263;1179;115104;-76
2022/05/29 06:08:10;;;;;;;10.63;5.47;;;;;;;12.84;100.00;99807.20;712527;1180;115294;-76
2022/05/29 06:23:13;;;;;;;7.78;4.93;;;;;;;12.92;100.00;99820.38;712702;1177;114893;-77
2022/05/29 06:38:16;;;;;;;9.93;6.43;;;;;;;12.97;100.00;99837.36;712661;1178;115599;-85
2022/05/29 06:53:19;;;;;;;12.10;6.27;;;;;;;13.59;100.00;99843.17;712511;1180;114860;-81
2022/05/29 07:08:21;;;;;;;10.50;6.10;;;;;;;13.69;100.00;99851.74;712314;1178;114649;-80
2022/05/29 07:23:23;;;;;;;11.68;5.83;;;;;;;14.03;100.00;99866.53;712288;1177;115597;-84
2022/05/29 07:38:29;;;;;;;7.70;5.40;;;;;;;14.39;100.00;99875.84;712500;1180;114312;-73
2022/05/29 07:53:31;;;;;;;10.60;5.80;;;;;;;14.57;100.00;99900.19;712189;1178;115515;-72
2022/05/29 08:08:34;;;;;;;8.90;5.50;;;;;;;14.50;100.00;99904.48;712610;1178;115895;-71
2022/05/29 08:23:37;;;;;;;15.03;6.78;;;;;;;14.64;100.00;99917.00;716900;1180;114852;-71
2022/05/29 08:38:43;;;;;;;10.60;6.95;;;;;;;15.40;100.00;99928.84;713025;1179;115483;-71
2022/05/29 08:53:52;;;;;;;12.53;6.97;;;;;;;15.90;100.00;99931.96;712891;1180;115818;-72
2022/05/29 09:09:20;;;;;;;17.58;8.30;;;;;;;15.95;98.61;99938.35;712889;1180;116140;-71
2022/05/29 09:24:31;;;;;;;14.30;7.80;;;;;;;17.16;95.97;99925.98;712782;1178;114867;-71
2022/05/29 09:39:41;;;;;;;16.00;9.20;;;;;;;16.64;92.48;99939.16;712658;1178;115919;-72
2022/05/29 09:54:51;;;;;;;33.57;18.40;;;;;;;16.93;90.98;99948.11;712715;1180;115172;-72
2022/05/29 10:10:09;;;;;;;10.87;6.10;;;;;;;17.25;87.00;99952.17;712882;1177;115232;-71
2022/05/29 10:25:25;;;;;;;9.75;6.45;;;;;;;16.89;87.08;99960.90;712663;1179;114845;-74
2022/05/29 10:40:32;;;;;;;10.73;6.53;;;;;;;16.07;89.35;99975.78;712831;1178;113959;-76
2022/05/29 10:56:17;;;;;;;13.90;6.80;;;;;;;16.69;89.48;99960.61;713027;1177;115774;-78
2022/05/29 11:12:03;;;;;;;7.55;4.80;;;;;;;17.62;86.50;99952.95;713034;1180;115746;-77
2022/05/29 11:27:24;;;;;;;6.70;5.33;;;;;;;18.00;81.64;99954.55;715852;1178;115673;-76
2022/05/29 11:42:49;;;;;;;6.10;4.10;;;;;;;17.95;78.82;99946.34;713893;1180;115458;-74
2022/05/29 11:58:07;;;;;;;5.75;3.60;;;;;;;19.09;77.44;99937.19;714750;1177;115894;-78
2022/05/29 12:13:13;;;;;;;5.57;3.33;;;;;;;19.61;75.53;99937.52;712925;1180;114395;-76
2022/05/29 12:28:35;;;;;;;2.87;2.60;;;;;;;21.51;74.07;99926.16;712932;1180;115085;-76
2022/05/29 12:44:18;;;;;;;8.28;3.30;;;;;;;19.68;71.51;99924.22;712506;1180;114407;-76
2022/05/29 12:59:26;;;;;;;7.15;4.55;;;;;;;19.20;71.62;99916.36;715498;1179;115410;-76
2022/05/29 13:14:29;;;;;;;5.90;3.35;;;;;;;19.37;70.31;99938.89;712878;1180;115361;-78
2022/05/29 13:29:46;;;;;;;4.60;3.17;;;;;;;18.48;72.20;99961.02;712269;1179;115395;-78
2022/05/29 13:44:48;;;;;;;3.25;2.63;;;;;;;16.77;76.35;99996.78;712464;1177;115369;-77
2022/05/29 14:15:49;;;;;;;6.33;3.28;;;;;;;14.71;89.09;100014.83;712457;1179;115260;-77
2022/05/29 14:31:13;;;;;;;14.05;8.10;;;;;;;14.88;91.16;99997.13;712690;1177;115416;-77
2022/05/29 15:01:38;;;;;;;5.45;3.40;;;;;;;15.47;91.97;100017.02;712611;1178;114223;-78
2022/05/29 15:16:40;;;;;;;4.80;3.10;;;;;;;15.59;90.96;100020.09;712348;1178;115257;-79
2022/05/29 15:31:50;;;;;;;8.70;3.53;;;;;;;16.68;90.47;100005.82;712525;1179;114192;-76
2022/05/29 15:47:30;;;;;;;16.67;7.10;;;;;;;17.34;89.74;99994.47;712800;1180;115454;-78
2022/05/29 16:02:45;;;;;;;9.50;5.13;;;;;;;17.61;88.98;99993.73;712500;1179;114979;-78
2022/05/29 16:18:00;;;;;;;18.30;8.00;;;;;;;17.60;89.88;99988.63;712503;1179;115041;-78
2022/05/29 16:33:13;;;;;;;12.20;6.15;;;;;;;17.62;89.75;99978.66;712468;1179;115505;-77
2022/05/29 16:48:46;;;;;;;40.70;17.03;;;;;;;17.68;90.03;99996.45;712644;1178;115362;-76
2022/05/29 17:03:56;;;;;;;19.95;9.13;;;;;;;17.74;89.51;99985.09;712385;1180;115868;-76
2022/05/29 17:18:59;;;;;;;19.10;11.80;;;;;;;17.45;90.09;99996.64;712623;1178;115569;-76
2022/05/29 17:34:11;;;;;;;56.35;28.90;;;;;;;17.09;91.18;100000.91;712593;1179;115587;-77
2022/05/29 17:49:17;;;;;;;44.40;22.20;;;;;;;16.70;91.98;100015.23;712752;1179;115878;-77
2022/05/29 18:04:20;;;;;;;166.30;54.00;;;;;;;16.39;92.13;100013.56;712429;1179;115305;-76
2022/05/29 18:19:23;;;;;;;26.00;15.20;;;;;;;16.37;93.33;99996.22;712932;1180;115789;-74
2022/05/29 18:34:26;;;;;;;61.37;24.47;;;;;;;15.82;93.75;100014.02;712771;1177;115612;-77
2022/05/29 18:49:29;;;;;;;20.30;10.80;;;;;;;15.55;95.40;100011.68;712907;1178;115402;-76
2022/05/29 19:04:32;;;;;;;17.65;11.20;;;;;;;15.66;96.64;100023.67;712860;1180;115190;-77
2022/05/29 19:19:36;;;;;;;15.80;9.27;;;;;;;15.61;96.66;100026.85;714864;1180;115664;-77
2022/05/29 19:34:38;;;;;;;19.30;11.53;;;;;;;15.42;97.28;100020.17;713011;1178;115912;-78
2022/05/29 19:49:41;;;;;;;12.55;9.05;;;;;;;15.08;96.92;100005.45;712601;1180;116058;-77
2022/05/29 20:04:49;;;;;;;12.85;9.40;;;;;;;14.84;96.57;100016.13;713094;1178;115429;-78
2022/05/29 20:19:52;;;;;;;18.10;9.10;;;;;;;14.86;97.73;99995.64;713761;1180;115600;-81
2022/05/29 20:34:54;;;;;;;14.30;9.10;;;;;;;14.88;97.13;100005.05;713636;1179;115321;-80
2022/05/29 20:49:57;;;;;;;13.27;8.07;;;;;;;14.89;97.32;99998.77;712956;1178;115161;-79
2022/05/29 21:05:00;;;;;;;38.08;19.75;;;;;;;14.79;97.69;99996.34;712849;1177;114469;-77
2022/05/29 21:20:03;;;;;;;23.10;13.67;;;;;;;14.39;98.41;100002.50;713140;1180;115924;-78
2022/05/29 21:35:08;;;;;;;12.03;9.03;;;;;;;14.03;99.17;100011.58;718431;1177;115872;-78
2022/05/29 21:50:12;;;;;;;16.43;9.53;;;;;;;14.12;99.25;100017.66;713228;1177;115790;-78
2022/05/29 22:05:15;;;;;;;16.50;10.03;;;;;;;13.89;100.00;100022.77;724967;1179;115563;-78
2022/05/29 22:20:18;;;;;;;16.10;9.70;;;;;;;13.79;100.00;100020.27;712271;1180;115315;-78
2022/05/29 22:35:21;;;;;;;14.10;9.40;;;;;;;13.91;100.00;100012.88;712221;1178;114824;-77
2022/05/29 22:50:26;;;;;;;29.50;15.33;;;;;;;14.00;100.00;100001.34;712578;1179;115788;-78
2022/05/29 23:05:29;;;;;;;27.53;16.10;;;;;;;13.95;100.00;99993.13;712527;1180;116383;-78
2022/05/29 23:20:32;;;;;;;23.23;14.13;;;;;;;13.94;100.00;99970.38;713006;1179;116220;-77
2022/05/29 23:35:37;;;;;;;25.67;16.57;;;;;;;13.84;100.00;99975.80;712298;1177;116040;-77
2022/05/29 23:50:39;;;;;;;25.30;14.00;;;;;;;13.91;100.00;99970.69;712436;1180;115199;-78
